Time;durP1;ratioP1;P1;durP2;ratioP2;P2;SDS_P1;SDS_P2;PMS_P1;PMS_P2;Temp;Humidity;BMP_temperature;BMP_pressure;BME280_temperature;BME280_humidity;BME280_pressure;Samples;Min_cycle;Max_cycle;Signal;HPM_P1;HPM_P2
2022/08/16 00:01:25;;;;;;;23.25;16.95;;;20.70;99.90;;;;;;5052829;28;20754;-78
2022/08/16 00:03:53;;;;;;;23.30;16.48;;;20.70;99.90;;;;;;5055308;28;20033;-79
2022/08/16 00:06:19;;;;;;;21.65;16.60;;;20.70;99.90;;;;;;5058205;28;20044;-79
2022/08/16 00:08:45;;;;;;;23.75;16.58;;;20.70;99.90;;;;;;5075069;28;20491;-79
2022/08/16 00:11:11;;;;;;;21.02;16.88;;;20.60;99.90;;;;;;5057265;28;20051;-79
2022/08/16 00:13:37;;;;;;;22.35;16.15;;;20.60;99.90;;;;;;5057114;28;20055;-80
2022/08/16 00:16:04;;;;;;;23.70;18.05;;;20.60;99.90;;;;;;5057633;28;20080;-80
2022/08/16 00:18:30;;;;;;;21.92;17.08;;;20.60;99.90;;;;;;5075883;28;20041;-79
2022/08/16 00:20:55;;;;;;;24.13;17.50;;;20.60;99.90;;;;;;5056704;28;20515;-80
2022/08/16 00:23:21;;;;;;;24.10;17.73;;;20.50;99.90;;;;;;5057904;28;20036;-80
2022/08/16 00:25:47;;;;;;;22.48;17.40;;;20.50;99.90;;;;;;5057074;28;20037;-79
2022/08/16 00:28:12;;;;;;;24.42;18.35;;;20.50;99.90;;;;;;5040446;28;20492;-78
2022/08/16 00:30:39;;;;;;;20.88;16.95;;;20.40;99.90;;;;;;5039499;28;20032;-80
2022/08/16 00:33:05;;;;;;;27.20;19.38;;;20.40;99.90;;;;;;5039778;28;20059;-79
2022/08/16 00:35:33;;;;;;;26.48;18.58;;;20.40;99.90;;;;;;5056550;28;20047;-78
2022/08/16 00:38:03;;;;;;;25.10;17.65;;;20.40;99.90;;;;;;5055919;28;20060;-80
2022/08/16 00:40:45;;;;;;;25.40;17.98;;;20.30;99.90;;;;;;5039522;28;20060;-79
2022/08/16 00:43:19;;;;;;;24.45;18.30;;;20.30;99.90;;;;;;5039536;28;20492;-80
2022/08/16 00:45:58;;;;;;;30.30;18.95;;;20.40;99.90;;;;;;5055945;28;20108;-78
2022/08/16 00:48:24;;;;;;;24.15;17.60;;;20.30;99.90;;;;;;5073884;28;20094;-79
2022/08/16 00:50:50;;;;;;;24.73;17.70;;;20.30;99.90;;;;;;5039628;28;20045;-80
2022/08/16 00:53:18;;;;;;;26.48;19.65;;;20.30;99.90;;;;;;5060092;28;20132;-79
2022/08/16 00:55:49;;;;;;;22.42;18.17;;;20.30;99.90;;;;;;5079152;28;20024;-75
2022/08/16 00:58:16;;;;;;;31.08;19.48;;;20.30;99.90;;;;;;5079079;28;20024;-74
2022/08/16 01:00:46;;;;;;;27.00;21.38;;;20.30;99.90;;;;;;5078303;28;20028;-79
2022/08/16 01:03:14;;;;;;;29.92;20.85;;;20.30;99.90;;;;;;5038595;28;20048;-80
2022/08/16 01:05:41;;;;;;;29.13;21.08;;;20.30;99.90;;;;;;5055204;28;20102;-78
2022/08/16 01:08:09;;;;;;;25.17;19.13;;;20.30;99.90;;;;;;5039450;28;20059;-79
2022/08/16 01:10:35;;;;;;;22.67;18.35;;;20.30;99.90;;;;;;5055598;28;20119;-79
2022/08/16 01:13:13;;;;;;;24.15;18.55;;;20.30;99.90;;;;;;5056156;28;20051;-80
2022/08/16 01:15:46;;;;;;;27.15;19.13;;;20.40;99.90;;;;;;5055039;28;20056;-78
2022/08/16 01:18:16;;;;;;;24.75;18.15;;;20.40;99.90;;;;;;5052048;28;20063;-79
2022/08/16 01:20:51;;;;;;;28.52;20.02;;;20.40;99.90;;;;;;5051886;28;20074;-80
2022/08/16 01:23:31;;;;;;;27.42;18.48;;;20.30;99.90;;;;;;5052195;28;20078;-79
2022/08/16 01:25:58;;;;;;;24.50;19.13;;;20.30;99.90;;;;;;5053268;28;20036;-79
2022/08/16 01:28:26;;;;;;;28.15;20.08;;;20.20;99.90;;;;;;5055813;28;20059;-78
2022/08/16 01:30:55;;;;;;;27.48;18.48;;;20.20;99.90;;;;;;5038552;28;20040;-78
2022/08/16 01:33:20;;;;;;;27.45;18.88;;;20.20;99.90;;;;;;5073480;28;20079;-79
2022/08/16 01:36:06;;;;;;;23.70;18.08;;;20.20;99.90;;;;;;5055718;28;20479;-79
2022/08/16 01:38:34;;;;;;;29.42;19.13;;;20.10;99.90;;;;;;5055386;28;20036;-78
2022/08/16 01:41:13;;;;;;;25.63;18.60;;;20.10;99.90;;;;;;5055243;28;20055;-78
2022/08/16 01:43:42;;;;;;;29.45;19.83;;;20.10;99.90;;;;;;5055636;28;20041;-79
2022/08/16 01:46:22;;;;;;;25.40;19.17;;;20.00;99.90;;;;;;5055268;28;20124;-79
2022/08/16 01:48:52;;;;;;;29.27;19.23;;;20.00;99.90;;;;;;5055391;28;20111;-78
2022/08/16 01:51:20;;;;;;;26.27;18.92;;;20.00;99.90;;;;;;5054887;28;20052;-79
2022/08/16 01:53:45;;;;;;;25.25;18.60;;;19.90;99.90;;;;;;5055707;28;20049;-78
2022/08/16 01:56:11;;;;;;;27.95;18.52;;;19.90;99.90;;;;;;5055237;28;20610;-79
2022/08/16 01:58:37;;;;;;;28.67;18.83;;;19.90;99.90;;;;;;5054826;28;20041;-79
2022/08/16 02:01:03;;;;;;;25.40;18.10;;;19.90;99.90;;;;;;5054675;28;20174;-78
2022/08/16 02:03:29;;;;;;;27.98;19.13;;;19.80;99.90;;;;;;5054874;28;20041;-79
2022/08/16 02:05:54;;;;;;;24.30;17.85;;;19.80;99.90;;;;;;5055231;28;20051;-79
2022/08/16 02:08:20;;;;;;;23.45;18.60;;;19.80;99.90;;;;;;5055092;28;20515;-79
2022/08/16 02:10:45;;;;;;;21.60;16.65;;;19.80;99.90;;;;;;5054645;28;20044;-78
2022/08/16 02:13:11;;;;;;;24.13;17.48;;;19.70;99.90;;;;;;5072732;28;20072;-79
2022/08/16 02:15:39;;;;;;;21.83;16.30;;;19.60;99.90;;;;;;5054958;28;20525;-78
2022/08/16 02:18:06;;;;;;;22.27;16.20;;;19.70;99.90;;;;;;5054651;28;20047;-79
2022/08/16 02:20:36;;;;;;;23.40;15.88;;;19.60;99.90;;;;;;5054715;28;20123;-78
2022/08/16 02:23:02;;;;;;;20.65;15.00;;;19.50;99.90;;;;;;5054744;28;20078;-78
2022/08/16 02:25:28;;;;;;;24.85;16.70;;;19.50;99.90;;;;;;5054580;28;20083;-78
2022/08/16 02:27:54;;;;;;;23.17;16.15;;;19.50;99.90;;;;;;5054742;28;20079;-78
2022/08/16 02:30:26;;;;;;;19.58;14.20;;;19.50;99.90;;;;;;5054234;28;20487;-78
2022/08/16 02:32:52;;;;;;;20.15;14.15;;;19.40;99.90;;;;;;5054266;28;20036;-78
2022/08/16 02:35:20;;;;;;;23.67;15.50;;;19.40;99.90;;;;;;5054422;28;20406;-78
2022/08/16 02:37:45;;;;;;;20.65;14.07;;;19.40;99.90;;;;;;5054013;28;20072;-78
2022/08/16 02:40:12;;;;;;;21.05;13.77;;;19.30;99.90;;;;;;5037537;28;20080;-78
2022/08/16 02:42:38;;;;;;;19.17;13.98;;;19.30;99.90;;;;;;5054521;28;20124;-79
2022/08/16 02:45:05;;;;;;;21.52;14.48;;;19.30;99.90;;;;;;5054158;28;20131;-78
2022/08/16 02:47:30;;;;;;;18.48;13.18;;;19.20;99.90;;;;;;5054213;28;20411;-78
2022/08/16 02:49:56;;;;;;;18.85;13.57;;;19.30;99.90;;;;;;5054147;28;20040;-80
2022/08/16 02:52:22;;;;;;;17.98;12.90;;;19.20;99.90;;;;;;5054023;28;20044;-78
2022/08/16 02:54:48;;;;;;;18.83;13.60;;;19.20;99.90;;;;;;5054038;28;20044;-78
2022/08/16 02:57:14;;;;;;;19.30;13.32;;;19.20;99.90;;;;;;5053992;28;20036;-78
2022/08/16 02:59:41;;;;;;;22.70;13.90;;;19.10;99.90;;;;;;5053493;28;20044;-78
2022/08/16 03:02:09;;;;;;;19.25;14.07;;;19.00;99.90;;;;;;5053843;28;20045;-80
2022/08/16 03:04:36;;;;;;;19.83;13.70;;;19.00;99.90;;;;;;5054047;28;20486;-78
2022/08/16 03:07:03;;;;;;;21.67;14.32;;;19.00;99.90;;;;;;5053963;28;20105;-77
2022/08/16 03:09:29;;;;;;;20.77;14.93;;;18.90;99.90;;;;;;5053327;28;20090;-81
2022/08/16 03:11:55;;;;;;;20.38;15.07;;;18.90;99.90;;;;;;5053906;28;20040;-78
2022/08/16 03:14:21;;;;;;;18.83;14.43;;;18.90;99.90;;;;;;5053464;28;20048;-78
2022/08/16 03:16:47;;;;;;;22.52;14.98;;;18.80;99.90;;;;;;5053510;28;20056;-80
2022/08/16 03:19:12;;;;;;;21.30;13.93;;;18.80;99.90;;;;;;5036699;28;20048;-77
2022/08/16 03:21:38;;;;;;;19.10;13.95;;;18.80;99.90;;;;;;5053184;28;20091;-78
2022/08/16 03:24:05;;;;;;;18.60;13.43;;;18.70;99.90;;;;;;5053427;28;20141;-78
2022/08/16 03:26:30;;;;;;;23.67;14.77;;;18.70;99.90;;;;;;5053527;28;20522;-79
2022/08/16 03:28:56;;;;;;;20.83;14.77;;;18.70;99.90;;;;;;5053473;28;20050;-78
2022/08/16 03:31:22;;;;;;;23.83;14.73;;;18.60;99.90;;;;;;5052877;28;20093;-78
2022/08/16 03:33:47;;;;;;;19.75;14.45;;;18.60;99.90;;;;;;5036616;28;20050;-79
2022/08/16 03:36:13;;;;;;;18.73;14.82;;;18.60;99.90;;;;;;5053116;28;20052;-78
2022/08/16 03:38:38;;;;;;;22.60;14.48;;;18.50;99.90;;;;;;5053233;28;20079;-78
2022/08/16 03:41:06;;;;;;;19.90;13.15;;;18.40;99.90;;;;;;5053061;28;20063;-79
2022/08/16 03:43:32;;;;;;;24.55;15.88;;;18.40;99.90;;;;;;5052889;28;20041;-78
2022/08/16 03:45:58;;;;;;;24.80;14.95;;;18.30;99.90;;;;;;5036380;28;20041;-79
2022/08/16 03:48:28;;;;;;;20.33;14.30;;;18.40;99.90;;;;;;5052376;28;20080;-78
2022/08/16 03:50:54;;;;;;;23.92;15.57;;;18.30;99.90;;;;;;5052510;28;20488;-78
2022/08/16 03:53:20;;;;;;;26.60;16.45;;;18.30;99.90;;;;;;5052894;28;20055;-78
2022/08/16 03:55:45;;;;;;;24.58;17.40;;;18.20;99.90;;;;;;5036409;28;20553;-78
2022/08/16 03:58:11;;;;;;;25.33;16.80;;;18.20;99.90;;;;;;5052759;28;20040;-78
2022/08/16 04:00:37;;;;;;;25.25;17.55;;;18.20;99.90;;;;;;5052788;28;20094;-78
2022/08/16 04:03:06;;;;;;;27.25;18.98;;;18.20;99.90;;;;;;5052670;28;20119;-79
2022/08/16 04:05:34;;;;;;;33.45;19.70;;;18.20;99.90;;;;;;5052631;28;20032;-78
2022/08/16 04:08:01;;;;;;;30.83;20.23;;;18.20;99.90;;;;;;5052677;28;20488;-78
2022/08/16 04:10:27;;;;;;;31.15;19.50;;;18.20;99.90;;;;;;5052212;28;20281;-78
2022/08/16 04:12:52;;;;;;;25.92;17.70;;;18.20;99.90;;;;;;5052838;28;20512;-78
2022/08/16 04:15:18;;;;;;;31.75;18.85;;;18.10;99.90;;;;;;5052663;28;20036;-78
2022/08/16 04:17:44;;;;;;;28.33;19.10;;;18.10;99.90;;;;;;5052510;28;20479;-78
2022/08/16 04:20:12;;;;;;;30.42;19.88;;;18.10;99.90;;;;;;5070140;28;20052;-78
2022/08/16 04:22:38;;;;;;;30.23;19.30;;;18.10;99.90;;;;;;5052477;28;20064;-78
2022/08/16 04:25:05;;;;;;;25.73;18.10;;;18.10;99.90;;;;;;5062413;28;20093;-83
2022/08/16 04:27:31;;;;;;;31.05;18.77;;;18.10;99.90;;;;;;5096093;28;20041;-82
2022/08/16 04:29:57;;;;;;;31.35;19.50;;;18.10;99.90;;;;;;5078104;28;20044;-81
2022/08/16 04:32:23;;;;;;;28.33;19.35;;;18.00;99.90;;;;;;5041703;28;20507;-78
2022/08/16 04:34:49;;;;;;;25.80;18.38;;;18.10;99.90;;;;;;5052549;28;20036;-78
2022/08/16 04:37:14;;;;;;;26.90;19.48;;;18.00;99.90;;;;;;5052391;28;20149;-79
2022/08/16 04:39:40;;;;;;;26.35;18.63;;;18.10;99.90;;;;;;5070022;28;20106;-79
2022/08/16 04:42:06;;;;;;;25.90;18.13;;;18.10;99.90;;;;;;5052295;28;20060;-78
2022/08/16 04:44:32;;;;;;;27.05;18.27;;;18.10;99.90;;;;;;5052373;28;20043;-79
2022/08/16 04:46:57;;;;;;;27.33;18.08;;;18.10;99.90;;;;;;5052815;28;20102;-78
2022/08/16 04:49:23;;;;;;;26.70;17.30;;;18.20;99.90;;;;;;5036275;28;20037;-78
2022/08/16 04:51:50;;;;;;;30.00;17.88;;;18.20;99.90;;;;;;5035380;28;20036;-78
2022/08/16 04:54:16;;;;;;;25.80;18.70;;;18.20;99.90;;;;;;5052181;28;20055;-79
2022/08/16 04:56:42;;;;;;;25.23;17.67;;;18.20;99.90;;;;;;5035941;28;20087;-78
2022/08/16 04:59:08;;;;;;;27.52;19.42;;;18.20;99.90;;;;;;5052259;28;20103;-78
2022/08/16 05:01:35;;;;;;;24.90;18.73;;;18.20;99.90;;;;;;5055788;28;20040;-78
2022/08/16 05:04:01;;;;;;;28.02;19.25;;;18.20;99.90;;;;;;5073986;28;20062;-78
2022/08/16 05:06:28;;;;;;;26.13;16.70;;;18.30;99.90;;;;;;5039596;28;20045;-79
2022/08/16 05:08:54;;;;;;;29.33;18.33;;;18.40;99.90;;;;;;5055914;28;20124;-78
2022/08/16 05:11:21;;;;;;;27.98;18.27;;;18.60;99.90;;;;;;5055592;28;20123;-79
2022/08/16 05:13:47;;;;;;;23.15;17.35;;;18.90;99.90;;;;;;5056147;28;20056;-79
2022/08/16 05:16:16;;;;;;;26.08;17.58;;;19.20;99.90;;;;;;5056279;28;20094;-79
2022/08/16 05:18:42;;;;;;;22.02;16.60;;;19.50;99.90;;;;;;5055763;28;20048;-79
2022/08/16 05:21:08;;;;;;;23.75;17.25;;;19.80;99.90;;;;;;5073658;28;20037;-79
2022/08/16 05:23:34;;;;;;;26.48;18.08;;;20.10;99.90;;;;;;5055957;28;20040;-79
2022/08/16 05:25:59;;;;;;;23.23;16.25;;;20.30;99.90;;;;;;5074065;28;20547;-79
2022/08/16 05:28:26;;;;;;;24.90;17.40;;;20.30;99.90;;;;;;5056221;28;20063;-79
2022/08/16 05:30:51;;;;;;;25.90;17.38;;;20.30;99.90;;;;;;5039081;28;20120;-79
2022/08/16 05:33:17;;;;;;;27.73;17.90;;;20.30;99.90;;;;;;5055748;28;20131;-79
2022/08/16 05:35:44;;;;;;;22.45;17.10;;;20.40;99.90;;;;;;5039099;28;20506;-79
2022/08/16 05:38:10;;;;;;;24.25;17.20;;;20.50;99.90;;;;;;5073605;28;20059;-79
2022/08/16 05:40:36;;;;;;;24.60;15.88;;;20.60;99.90;;;;;;5055563;28;20048;-79
2022/08/16 05:43:01;;;;;;;25.38;18.02;;;20.70;99.90;;;;;;5039252;28;20051;-79
2022/08/16 05:45:27;;;;;;;25.42;17.80;;;20.90;99.90;;;;;;5055554;28;20044;-79
2022/08/16 05:47:52;;;;;;;20.80;15.68;;;21.00;99.90;;;;;;5056167;28;20045;-79
2022/08/16 05:50:18;;;;;;;25.80;17.20;;;20.90;99.90;;;;;;5056098;28;20086;-79
2022/08/16 05:52:44;;;;;;;21.35;16.17;;;20.70;99.90;;;;;;5055479;28;20097;-80
2022/08/16 05:55:09;;;;;;;22.33;17.17;;;20.60;99.90;;;;;;5039074;28;20103;-79
2022/08/16 05:57:35;;;;;;;25.63;18.25;;;20.40;99.90;;;;;;5055379;28;20048;-79
2022/08/16 06:00:02;;;;;;;21.92;16.27;;;20.30;99.90;;;;;;5055050;28;20072;-79
2022/08/16 06:02:31;;;;;;;23.77;16.77;;;20.10;99.90;;;;;;5055359;28;20123;-79
2022/08/16 06:04:57;;;;;;;26.77;17.38;;;20.10;99.90;;;;;;5055234;28;20455;-79
2022/08/16 06:07:22;;;;;;;24.08;16.98;;;20.00;99.90;;;;;;5073294;28;20144;-79
2022/08/16 06:09:48;;;;;;;24.40;17.50;;;20.00;99.90;;;;;;5038247;28;20054;-80
2022/08/16 06:12:14;;;;;;;25.38;16.80;;;20.00;99.90;;;;;;5054402;28;20499;-76
2022/08/16 06:14:40;;;;;;;23.05;15.63;;;20.00;99.90;;;;;;5072823;28;20047;-75
2022/08/16 06:17:06;;;;;;;23.50;16.35;;;20.10;99.90;;;;;;5055020;28;20135;-76
2022/08/16 06:19:32;;;;;;;24.30;15.70;;;20.10;99.90;;;;;;5054614;28;20033;-76
2022/08/16 06:21:57;;;;;;;22.77;15.68;;;20.10;99.90;;;;;;5054742;28;20041;-76
2022/08/16 06:24:23;;;;;;;23.65;15.25;;;20.10;99.90;;;;;;5054790;28;20032;-76
2022/08/16 06:26:48;;;;;;;23.98;16.17;;;20.10;99.90;;;;;;5054980;28;20045;-75
2022/08/16 06:29:14;;;;;;;26.77;15.82;;;20.10;99.90;;;;;;5054498;28;20131;-75
2022/08/16 06:31:40;;;;;;;24.73;15.13;;;20.10;99.90;;;;;;5054291;28;20642;-76
2022/08/16 06:34:06;;;;;;;19.15;14.98;;;20.20;99.90;;;;;;5054569;28;20072;-76
2022/08/16 06:36:31;;;;;;;21.45;15.27;;;20.20;99.90;;;;;;5054361;28;20044;-76
2022/08/16 06:38:58;;;;;;;22.38;15.93;;;20.30;99.90;;;;;;5054466;28;20044;-76
2022/08/16 06:41:24;;;;;;;21.77;16.60;;;20.40;99.90;;;;;;5037474;28;20040;-76
2022/08/16 06:43:50;;;;;;;22.55;15.88;;;20.80;99.90;;;;;;5054317;28;20040;-75
2022/08/16 06:46:36;;;;;;;22.75;15.68;;;21.30;99.90;;;;;;5055866;28;20036;-76
2022/08/16 06:49:05;;;;;;;22.33;15.38;;;21.80;99.90;;;;;;5049710;28;20052;-76
2022/08/16 06:51:30;;;;;;;23.88;16.58;;;22.30;99.90;;;;;;5047461;28;20037;-76
2022/08/16 06:53:56;;;;;;;18.30;14.82;;;22.80;99.90;;;;;;5034212;28;20048;-76
2022/08/16 06:56:22;;;;;;;21.48;15.50;;;23.10;99.90;;;;;;5037982;28;20499;-76
2022/08/16 06:58:47;;;;;;;23.85;15.63;;;23.30;99.90;;;;;;5075715;28;20044;-76
2022/08/16 07:01:13;;;;;;;23.13;16.42;;;23.30;99.90;;;;;;5073599;28;20071;-76
2022/08/16 07:03:39;;;;;;;21.33;15.10;;;23.30;99.90;;;;;;5071815;28;20039;-76
2022/08/16 07:06:05;;;;;;;18.73;15.02;;;23.20;99.90;;;;;;5038388;28;20032;-76
2022/08/16 07:08:30;;;;;;;21.50;15.32;;;23.10;99.90;;;;;;5043910;28;21061;-74
2022/08/16 07:10:57;;;;;;;20.90;15.48;;;23.10;99.90;;;;;;5046343;28;20105;-79
2022/08/16 07:13:24;;;;;;;20.33;16.77;;;23.30;99.90;;;;;;5033086;28;20372;-80
2022/08/16 07:15:50;;;;;;;22.23;15.65;;;23.50;99.90;;;;;;5017504;28;20041;-80
2022/08/16 07:18:19;;;;;;;23.92;16.80;;;23.70;99.90;;;;;;5041421;28;20045;-79
2022/08/16 07:20:45;;;;;;;24.70;16.50;;;23.80;99.90;;;;;;5045836;28;20127;-84
2022/08/16 07:23:11;;;;;;;20.25;15.30;;;23.80;99.90;;;;;;5029020;28;20083;-84
2022/08/16 07:25:37;;;;;;;22.25;17.05;;;23.80;99.90;;;;;;5052382;28;20049;-84
2022/08/16 07:28:04;;;;;;;18.60;15.65;;;23.80;99.90;;;;;;5036220;28;20032;-84
2022/08/16 07:30:31;;;;;;;20.90;16.70;;;24.00;99.90;;;;;;5044295;28;20040;-84
2022/08/16 07:32:56;;;;;;;22.83;16.48;;;24.50;99.90;;;;;;5042881;28;20094;-85
2022/08/16 07:35:23;;;;;;;21.42;16.52;;;25.00;99.90;;;;;;5065934;28;20040;-83
2022/08/16 07:37:49;;;;;;;22.45;17.08;;;25.40;99.90;;;;;;5050449;28;20040;-83
2022/08/16 07:40:15;;;;;;;22.85;17.20;;;25.80;99.90;;;;;;5041435;28;20041;-84
2022/08/16 07:42:40;;;;;;;21.67;17.35;;;26.10;99.90;;;;;;5036614;28;20087;-83
2022/08/16 07:45:07;;;;;;;18.85;16.80;;;26.30;99.90;;;;;;5050862;28;20038;-84
2022/08/16 07:47:34;;;;;;;19.98;15.82;;;26.50;99.90;;;;;;5041966;28;20040;-84
2022/08/16 07:50:00;;;;;;;20.75;16.92;;;26.70;99.90;;;;;;5034769;28;20500;-85
2022/08/16 07:52:26;;;;;;;23.33;17.77;;;26.90;99.90;;;;;;5032507;28;20084;-84
2022/08/16 07:54:52;;;;;;;20.15;16.92;;;27.10;99.90;;;;;;5031503;28;20079;-84
2022/08/16 07:57:18;;;;;;;24.08;18.20;;;27.30;99.90;;;;;;5031556;28;20053;-84
2022/08/16 07:59:44;;;;;;;18.73;16.05;;;27.50;99.90;;;;;;5044271;28;20454;-84
2022/08/16 08:02:11;;;;;;;20.88;16.75;;;27.80;99.90;;;;;;5035256;28;20124;-83
2022/08/16 08:04:37;;;;;;;18.35;16.45;;;28.00;99.90;;;;;;5031348;28;20041;-84
2022/08/16 08:07:03;;;;;;;21.05;15.70;;;28.20;99.90;;;;;;5031423;28;20063;-83
2022/08/16 08:09:28;;;;;;;18.08;15.35;;;28.40;99.90;;;;;;5039216;28;20422;-84
2022/08/16 08:11:55;;;;;;;20.90;14.95;;;28.60;99.90;;;;;;5043066;28;20040;-84
2022/08/16 08:14:20;;;;;;;17.50;14.70;;;28.60;99.90;;;;;;5051022;28;20449;-84
2022/08/16 08:16:46;;;;;;;16.40;14.27;;;28.50;99.90;;;;;;5044684;28;20033;-84
2022/08/16 08:19:12;;;;;;;19.50;15.52;;;28.50;99.90;;;;;;5031805;28;20075;-85
2022/08/16 08:21:40;;;;;;;18.50;15.35;;;28.40;99.90;;;;;;5050469;28;20036;-84
2022/08/16 08:24:08;;;;;;;15.10;13.20;;;28.50;99.90;;;;;;5051452;28;20044;-83
2022/08/16 08:26:33;;;;;;;17.33;15.10;;;28.60;99.90;;;;;;5051074;28;20086;-85
2022/08/16 08:28:59;;;;;;;17.88;14.07;;;28.80;99.90;;;;;;5050993;28;20453;-84
2022/08/16 08:31:25;;;;;;;19.75;14.80;;;28.90;99.90;;;;;;5034411;28;20048;-84
2022/08/16 08:33:55;;;;;;;16.90;14.20;;;28.90;99.90;;;;;;5051274;28;20370;-84
2022/08/16 08:36:30;;;;;;;20.90;15.63;;;29.10;99.90;;;;;;5053771;28;20040;-85
2022/08/16 08:38:56;;;;;;;17.20;15.00;;;29.40;99.90;;;;;;5050906;28;20492;-84
2022/08/16 08:41:23;;;;;;;21.38;16.40;;;29.50;99.90;;;;;;5049418;28;20040;-85
2022/08/16 08:43:49;;;;;;;16.50;14.25;;;29.40;99.90;;;;;;5050533;28;20115;-84
2022/08/16 08:46:14;;;;;;;19.48;14.88;;;29.40;98.70;;;;;;5049027;28;20158;-84
2022/08/16 08:48:40;;;;;;;17.75;14.20;;;29.30;98.00;;;;;;5050573;28;20107;-85
2022/08/16 08:51:08;;;;;;;15.45;12.93;;;29.40;97.60;;;;;;5056262;28;20048;-81
2022/08/16 08:53:34;;;;;;;13.98;11.23;;;29.40;96.70;;;;;;5076847;28;20029;-81
2022/08/16 08:56:02;;;;;;;14.23;12.35;;;29.50;97.40;;;;;;5073322;28;20020;-82
2022/08/16 08:58:28;;;;;;;15.63;12.90;;;29.60;96.50;;;;;;5075513;28;20502;-84
2022/08/16 09:00:55;;;;;;;15.32;13.80;;;29.70;96.00;;;;;;5063971;28;20052;-83
2022/08/16 09:03:21;;;;;;;28.55;13.45;;;29.70;95.70;;;;;;5071385;28;20047;-81
2022/08/16 09:05:48;;;;;;;16.92;13.50;;;29.80;96.30;;;;;;5057055;28;20037;-84
2022/08/16 09:08:13;;;;;;;13.15;11.70;;;29.80;95.50;;;;;;5052154;28;20041;-84
2022/08/16 09:10:39;;;;;;;17.90;13.50;;;29.90;95.60;;;;;;5046987;28;20187;-84
2022/08/16 09:13:05;;;;;;;18.92;12.88;;;30.10;95.10;;;;;;5055506;28;20036;-84
2022/08/16 09:15:31;;;;;;;15.18;10.60;;;30.00;94.80;;;;;;5062466;28;20072;-85
2022/08/16 09:17:56;;;;;;;18.33;13.55;;;30.20;94.00;;;;;;5059846;28;20066;-84
2022/08/16 09:20:24;;;;;;;15.35;12.18;;;30.30;92.30;;;;;;5051279;28;20052;-85
2022/08/16 09:22:50;;;;;;;15.10;11.48;;;30.30;91.60;;;;;;5062886;28;20028;-83
2022/08/16 09:25:16;;;;;;;16.73;12.43;;;30.20;91.40;;;;;;5050011;28;20037;-85
2022/08/16 09:27:42;;;;;;;15.45;12.85;;;30.20;91.80;;;;;;5055845;28;20120;-84
2022/08/16 09:30:09;;;;;;;13.85;9.85;;;30.20;91.00;;;;;;5055341;28;20072;-84
2022/08/16 09:32:35;;;;;;;17.98;12.07;;;30.30;87.90;;;;;;5037945;28;20056;-84
2022/08/16 09:35:01;;;;;;;12.18;10.93;;;30.30;85.90;;;;;;5031944;28;20399;-85
2022/08/16 09:37:29;;;;;;;12.07;8.93;;;30.10;86.60;;;;;;5037811;28;20495;-85
2022/08/16 09:39:55;;;;;;;10.50;7.68;;;30.20;82.70;;;;;;5053111;28;20139;-86
2022/08/16 09:42:21;;;;;;;15.05;11.80;;;30.30;81.70;;;;;;5046337;28;20043;-83
2022/08/16 09:44:47;;;;;;;9.15;8.20;;;30.40;82.90;;;;;;5050398;28;20037;-85
2022/08/16 09:47:12;;;;;;;10.98;8.43;;;30.40;81.30;;;;;;5051095;28;20055;-83
2022/08/16 09:49:38;;;;;;;13.02;8.80;;;30.50;76.90;;;;;;5054407;28;20040;-84
2022/08/16 09:52:04;;;;;;;12.95;9.77;;;30.50;76.90;;;;;;5048184;28;20124;-83
2022/08/16 09:54:30;;;;;;;12.65;8.20;;;30.50;76.60;;;;;;5055149;28;20646;-83
2022/08/16 09:56:56;;;;;;;8.95;6.90;;;30.50;74.20;;;;;;5053058;28;20127;-84
2022/08/16 09:59:23;;;;;;;10.95;7.57;;;30.70;71.30;;;;;;5052906;28;20135;-85
2022/08/16 10:01:50;;;;;;;10.10;8.00;;;30.80;68.60;;;;;;5046726;28;20040;-82
2022/08/16 10:04:17;;;;;;;14.80;8.77;;;30.80;67.80;;;;;;5019375;28;20037;-83
2022/08/16 10:06:44;;;;;;;9.88;8.00;;;30.90;70.60;;;;;;5054067;28;20127;-83
2022/08/16 10:09:11;;;;;;;12.35;6.28;;;31.10;70.50;;;;;;5047110;28;20043;-82
2022/08/16 10:14:39;;;;;;;10.15;6.40;;;31.40;66.30;;;;;;4974903;28;20163;-84
2022/08/16 10:17:05;;;;;;;7.32;5.50;;;31.30;64.60;;;;;;5039131;28;20053;-84
2022/08/16 10:19:31;;;;;;;8.75;5.72;;;31.40;63.60;;;;;;5049495;28;20074;-81
2022/08/16 10:21:57;;;;;;;8.15;6.05;;;31.50;62.60;;;;;;5048317;28;20347;-82
2022/08/16 10:24:22;;;;;;;11.77;5.93;;;31.30;61.20;;;;;;5045669;28;20036;-81
2022/08/16 10:26:49;;;;;;;9.80;6.93;;;31.20;61.60;;;;;;5046306;28;20040;-84
2022/08/16 10:29:15;;;;;;;9.95;6.50;;;31.20;61.70;;;;;;5045179;28;20369;-85
2022/08/16 10:31:42;;;;;;;8.93;5.78;;;31.10;60.40;;;;;;5052666;28;20036;-84
2022/08/16 10:34:07;;;;;;;7.03;6.05;;;31.10;62.00;;;;;;5029777;28;20102;-82
2022/08/16 10:36:33;;;;;;;11.10;7.63;;;31.10;62.80;;;;;;5054363;28;20441;-85
2022/08/16 10:38:59;;;;;;;10.23;6.53;;;30.90;61.50;;;;;;5051940;28;20437;-85
2022/08/16 10:41:25;;;;;;;7.65;6.40;;;30.70;62.10;;;;;;5051769;28;20033;-84
2022/08/16 10:43:50;;;;;;;7.65;5.72;;;30.70;62.40;;;;;;5054366;28;20063;-84
2022/08/16 10:46:16;;;;;;;7.35;5.55;;;30.70;62.40;;;;;;5045642;28;20404;-85
2022/08/16 10:48:44;;;;;;;8.93;6.20;;;30.80;62.40;;;;;;5034346;28;20052;-84
2022/08/16 10:51:11;;;;;;;9.32;6.72;;;30.90;60.70;;;;;;5033875;28;20090;-85
2022/08/16 10:53:37;;;;;;;7.13;5.40;;;30.90;59.20;;;;;;5036281;28;20045;-84
2022/08/16 10:56:05;;;;;;;7.30;5.75;;;30.90;59.30;;;;;;5054399;28;20048;-85
2022/08/16 10:58:32;;;;;;;8.75;6.00;;;30.90;59.20;;;;;;5049053;28;20056;-84
2022/08/16 11:00:58;;;;;;;7.07;6.38;;;30.90;58.70;;;;;;5046384;28;20048;-84
2022/08/16 11:03:26;;;;;;;6.20;5.28;;;30.90;58.90;;;;;;5046147;28;20518;-84
2022/08/16 11:05:52;;;;;;;7.40;5.88;;;30.80;60.00;;;;;;5052509;28;20036;-85
2022/08/16 11:08:17;;;;;;;9.55;5.05;;;30.90;61.20;;;;;;5046505;28;20558;-85
2022/08/16 11:10:45;;;;;;;7.57;5.32;;;31.10;60.40;;;;;;5052141;28;20040;-84
2022/08/16 11:13:14;;;;;;;6.63;5.25;;;31.10;58.40;;;;;;5044483;28;20043;-86
2022/08/16 11:15:43;;;;;;;10.77;5.28;;;31.20;58.90;;;;;;5051931;28;20032;-85
2022/08/16 11:18:10;;;;;;;7.88;7.10;;;31.40;58.20;;;;;;5045048;28;20056;-84
2022/08/16 11:20:37;;;;;;;8.00;5.25;;;31.30;57.00;;;;;;5053746;28;20032;-85
2022/08/16 11:23:03;;;;;;;8.05;7.20;;;31.30;57.00;;;;;;5049229;28;20032;-82
2022/08/16 11:25:30;;;;;;;10.77;5.70;;;31.30;56.70;;;;;;5048791;28;20043;-85
2022/08/16 11:27:57;;;;;;;22.88;8.07;;;31.30;56.70;;;;;;5048136;28;20048;-86
2022/08/16 11:30:24;;;;;;;15.73;6.03;;;31.30;56.80;;;;;;5053614;28;20070;-83
2022/08/16 11:32:50;;;;;;;7.05;5.22;;;31.40;57.30;;;;;;5034291;28;20063;-84
2022/08/16 11:35:19;;;;;;;6.57;5.97;;;31.40;57.50;;;;;;5052144;28;20044;-85
2022/08/16 11:37:53;;;;;;;8.43;5.45;;;31.50;57.20;;;;;;5034878;28;20032;-83
2022/08/16 11:40:21;;;;;;;10.10;5.80;;;31.60;57.20;;;;;;5035668;28;20040;-85
2022/08/16 11:42:46;;;;;;;6.22;5.22;;;31.80;57.00;;;;;;5033434;28;20075;-85
2022/08/16 11:45:12;;;;;;;6.30;5.47;;;31.80;57.10;;;;;;5037839;28;20029;-85
2022/08/16 11:47:38;;;;;;;7.90;6.50;;;31.90;56.80;;;;;;5065795;28;20036;-85
2022/08/16 11:50:07;;;;;;;13.32;7.07;;;31.90;56.10;;;;;;5045963;28;20055;-85
2022/08/16 11:52:34;;;;;;;7.80;5.78;;;32.00;55.50;;;;;;5033714;28;20518;-84
2022/08/16 11:55:01;;;;;;;6.93;5.05;;;32.00;55.90;;;;;;5038346;28;20033;-84
2022/08/16 11:57:27;;;;;;;8.98;6.05;;;32.00;56.10;;;;;;5044791;28;20029;-84
2022/08/16 11:59:53;;;;;;;5.95;5.13;;;32.00;55.10;;;;;;5034241;28;20040;-83
2022/08/16 12:02:19;;;;;;;8.27;4.88;;;32.00;54.60;;;;;;5049487;28;20107;-84
2022/08/16 12:04:44;;;;;;;4.72;3.90;;;32.00;54.00;;;;;;5045092;28;20119;-84
2022/08/16 12:07:10;;;;;;;6.82;5.13;;;31.90;53.60;;;;;;5042933;28;20047;-84
2022/08/16 12:09:36;;;;;;;4.40;3.75;;;31.80;53.40;;;;;;5043631;28;20175;-84
2022/08/16 12:12:02;;;;;;;8.13;4.53;;;31.90;54.00;;;;;;5028276;28;20028;-84
2022/08/16 12:14:28;;;;;;;7.82;4.15;;;31.90;52.60;;;;;;5034351;28;20059;-85
2022/08/16 12:16:55;;;;;;;6.22;4.18;;;31.80;52.70;;;;;;5036195;28;20127;-84
2022/08/16 12:19:23;;;;;;;4.55;3.72;;;31.80;53.10;;;;;;5052649;28;20052;-84
2022/08/16 12:21:48;;;;;;;3.63;3.10;;;31.70;53.10;;;;;;5052587;28;20047;-84
2022/08/16 12:24:14;;;;;;;6.65;3.28;;;31.60;52.50;;;;;;5053213;28;20116;-84
2022/08/16 12:26:40;;;;;;;7.85;3.08;;;31.60;52.10;;;;;;5036061;28;20040;-84
2022/08/16 12:29:06;;;;;;;3.55;3.05;;;31.60;51.60;;;;;;5052988;28;20040;-84
2022/08/16 12:31:31;;;;;;;5.30;3.30;;;31.60;51.80;;;;;;5053091;28;20117;-84